createdAt,value
2018-05-12T00:00:36.116Z,4.50
2018-05-12T00:03:04.904Z,4.73
2018-05-12T00:05:34.373Z,4.57
2018-05-12T00:08:03.236Z,4.30
2018-05-12T00:10:32.068Z,4.90
2018-05-12T00:13:00.894Z,4.57
2018-05-12T00:15:29.533Z,4.67
2018-05-12T00:17:58.277Z,4.97
2018-05-12T00:20:27.199Z,5.30
2018-05-12T00:22:55.913Z,5.00
2018-05-12T00:25:24.575Z,5.50
2018-05-12T00:27:53.301Z,5.63
2018-05-12T00:30:22.007Z,5.47
2018-05-12T00:32:50.778Z,5.80
2018-05-12T00:35:20.738Z,5.50
2018-05-12T00:37:50.180Z,5.57
2018-05-12T00:40:19.042Z,5.40
2018-05-12T00:42:47.875Z,5.90
2018-05-12T00:45:16.566Z,5.10
2018-05-12T00:47:45.296Z,5.20
2018-05-12T00:50:14.167Z,4.60
2018-05-12T00:52:44.044Z,4.17
2018-05-12T00:55:13.091Z,3.97
2018-05-12T00:57:42.886Z,4.10
2018-05-12T01:00:11.659Z,4.20
2018-05-12T01:02:40.159Z,3.97
2018-05-12T01:05:08.932Z,3.67
2018-05-12T01:07:37.762Z,3.80
2018-05-12T01:10:06.595Z,3.97
2018-05-12T01:12:35.305Z,3.73
2018-05-12T01:15:04.170Z,3.60
2018-05-12T01:17:32.862Z,4.23
2018-05-12T01:20:01.728Z,4.10
2018-05-12T01:22:30.561Z,4.37
2018-05-12T01:25:00.435Z,4.50
2018-05-12T01:27:28.957Z,4.53
2018-05-12T01:29:57.445Z,4.73
2018-05-12T01:32:26.157Z,4.90
2018-05-12T01:34:54.873Z,5.40
2018-05-12T01:37:23.397Z,5.13
2018-05-12T01:39:52.188Z,5.20
2018-05-12T01:42:21.019Z,5.40
2018-05-12T01:44:49.513Z,5.80
2018-05-12T01:47:18.291Z,6.10
2018-05-12T01:49:46.996Z,5.77
2018-05-12T01:52:16.185Z,6.10
2018-05-12T01:54:44.700Z,5.50
2018-05-12T01:57:14.219Z,5.83
2018-05-12T01:59:42.910Z,5.93
2018-05-12T02:02:11.490Z,6.10
2018-05-12T02:04:40.183Z,5.83
2018-05-12T02:07:08.950Z,5.53
2018-05-12T02:09:37.585Z,6.60
2018-05-12T02:12:06.287Z,6.40
2018-05-12T02:14:35.052Z,6.17
2018-05-12T02:17:03.595Z,6.53
2018-05-12T02:19:33.611Z,5.63
2018-05-12T02:22:02.232Z,6.10
2018-05-12T02:24:30.945Z,6.07
2018-05-12T02:26:59.804Z,6.13
2018-05-12T02:29:28.325Z,6.23
2018-05-12T02:31:56.944Z,5.80
2018-05-12T02:34:25.647Z,6.10
2018-05-12T02:36:54.547Z,6.20
2018-05-12T02:39:23.420Z,5.80
2018-05-12T02:41:52.130Z,5.83
2018-05-12T02:44:21.596Z,6.27
2018-05-12T02:46:50.388Z,6.10
2018-05-12T02:49:19.853Z,6.30
2018-05-12T02:51:48.727Z,6.83
2018-05-12T02:54:17.459Z,6.50
2018-05-12T02:56:46.189Z,6.50
2018-05-12T02:59:15.802Z,6.33
2018-05-12T03:01:44.439Z,7.13
2018-05-12T03:04:13.280Z,7.13
2018-05-12T03:06:42.188Z,7.20
2018-05-12T03:09:10.933Z,7.27
2018-05-12T03:11:39.646Z,7.13
2018-05-12T03:14:08.600Z,6.67
2018-05-12T03:16:37.229Z,6.97
2018-05-12T03:19:05.945Z,6.60
2018-05-12T03:21:34.661Z,6.77
2018-05-12T03:24:03.454Z,7.97
2018-05-12T03:26:32.943Z,6.97
2018-05-12T03:29:01.482Z,7.17
2018-05-12T03:31:30.232Z,6.70
2018-05-12T03:33:59.439Z,7.53
2018-05-12T03:36:28.286Z,7.27
2018-05-12T03:38:56.847Z,7.70
2018-05-12T03:41:26.313Z,7.53
2018-05-12T03:43:55.104Z,7.50
2018-05-12T03:46:24.798Z,6.80
2018-05-12T03:48:53.633Z,7.40
2018-05-12T03:51:22.322Z,7.67
2018-05-12T03:53:51.091Z,7.73
2018-05-12T03:56:19.608Z,7.53
2018-05-12T03:58:48.366Z,7.67
2018-05-12T04:01:17.262Z,7.70
2018-05-12T04:03:46.030Z,8.17
2018-05-12T04:06:32.367Z,8.03
2018-05-12T04:09:18.693Z,7.87
2018-05-12T04:12:05.021Z,8.23
2018-05-12T04:14:33.767Z,7.90
2018-05-12T04:17:02.611Z,8.27
2018-05-12T04:19:32.024Z,8.80
2018-05-12T04:22:01.368Z,8.63
2018-05-12T04:24:30.362Z,8.07
2018-05-12T04:26:59.133Z,9.13
2018-05-12T04:29:27.818Z,8.67
2018-05-12T04:31:56.779Z,8.33
2018-05-12T04:34:26.087Z,8.57
2018-05-12T04:36:55.685Z,8.60
2018-05-12T04:39:24.538Z,7.87
2018-05-12T04:41:54.155Z,8.10
2018-05-12T04:44:23.561Z,8.23
2018-05-12T04:46:52.219Z,8.73
2018-05-12T04:49:21.512Z,8.30
2018-05-12T04:51:50.272Z,8.60
2018-05-12T04:54:19.534Z,8.20
2018-05-12T04:56:48.296Z,8.20
2018-05-12T04:59:17.159Z,8.20
2018-05-12T05:01:45.994Z,8.10
2018-05-12T05:04:14.736Z,8.10
2018-05-12T05:06:43.978Z,8.10
2018-05-12T05:09:13.480Z,8.43
2018-05-12T05:11:42.304Z,8.50
2018-05-12T05:14:11.050Z,9.03
2018-05-12T05:16:39.866Z,8.07
2018-05-12T05:19:08.708Z,8.03
2018-05-12T05:21:37.507Z,8.27
2018-05-12T05:24:06.189Z,8.33
2018-05-12T05:26:35.655Z,7.97
2018-05-12T05:29:04.526Z,8.57
2018-05-12T05:31:33.236Z,8.53
2018-05-12T05:34:01.995Z,8.77
2018-05-12T05:36:30.819Z,8.80
2018-05-12T05:38:59.661Z,8.97
2018-05-12T05:41:28.291Z,9.60
2018-05-12T05:43:57.043Z,8.43
2018-05-12T05:46:26.338Z,8.07
2018-05-12T05:48:55.184Z,7.70
2018-05-12T05:51:24.715Z,8.13
2018-05-12T05:53:53.633Z,7.83
2018-05-12T05:56:22.348Z,7.47
2018-05-12T05:58:51.063Z,7.93
2018-05-12T06:05:55.047Z,8.27
2018-05-12T06:08:23.733Z,8.30
2018-05-12T06:10:52.319Z,8.23
2018-05-12T06:13:21.009Z,8.10
2018-05-12T06:15:50.174Z,8.03
2018-05-12T06:18:18.953Z,8.17
2018-05-12T06:20:47.785Z,8.10
2018-05-12T06:23:16.598Z,7.10
2018-05-12T06:25:45.312Z,7.77
2018-05-12T06:28:14.676Z,7.43
2018-05-12T06:30:43.507Z,7.30
2018-05-12T06:33:13.323Z,7.20
2018-05-12T06:35:42.664Z,7.17
2018-05-12T06:38:11.353Z,7.23
2018-05-12T06:40:40.215Z,6.80
2018-05-12T06:43:08.778Z,6.90
2018-05-12T06:45:38.967Z,7.33
2018-05-12T06:48:07.692Z,9.00
2018-05-12T06:50:36.399Z,9.63
2018-05-12T06:53:05.143Z,8.90
2018-05-12T06:55:33.996Z,9.63
2018-05-12T06:58:02.824Z,10.03
2018-05-12T07:00:32.445Z,10.23
2018-05-12T07:03:01.276Z,10.57
2018-05-12T07:05:30.021Z,11.43
2018-05-12T07:07:58.711Z,11.73
2018-05-12T07:10:27.583Z,11.43
2018-05-12T07:12:56.282Z,11.37
2018-05-12T07:15:24.922Z,11.60
2018-05-12T07:17:53.680Z,12.63
2018-05-12T07:20:22.398Z,14.00
2018-05-12T07:22:51.082Z,14.00
2018-05-12T07:25:20.570Z,14.13
2018-05-12T07:27:49.206Z,14.77
2018-05-12T07:30:18.042Z,14.77
2018-05-12T07:32:46.571Z,15.13
2018-05-12T07:35:15.193Z,14.73
2018-05-12T07:37:43.934Z,15.50
2018-05-12T07:40:12.581Z,15.33
2018-05-12T07:42:41.418Z,15.60
2018-05-12T07:45:10.245Z,15.17
2018-05-12T07:47:39.080Z,15.53
2018-05-12T07:50:08.705Z,15.47
2018-05-12T07:52:37.400Z,15.83
2018-05-12T07:55:06.094Z,14.93
2018-05-12T07:57:35.557Z,14.57
2018-05-12T08:00:04.479Z,15.23
2018-05-12T08:02:33.253Z,15.80
2018-05-12T08:05:02.081Z,16.10
2018-05-12T08:07:30.914Z,16.10
2018-05-12T08:09:59.746Z,17.37
2018-05-12T08:12:28.227Z,17.60
2018-05-12T08:14:57.092Z,17.97
2018-05-12T08:17:25.857Z,15.70
2018-05-12T08:19:55.478Z,15.27
2018-05-12T08:22:24.296Z,14.93
2018-05-12T08:24:54.951Z,14.00
2018-05-12T08:27:23.647Z,15.00
2018-05-12T08:29:52.570Z,14.73
2018-05-12T08:32:21.282Z,13.57
2018-05-12T08:34:49.995Z,14.00
2018-05-12T08:37:18.874Z,14.57
2018-05-12T08:39:47.566Z,13.90
2018-05-12T08:42:16.336Z,13.83
2018-05-12T08:44:44.835Z,14.40
2018-05-12T08:47:13.478Z,14.17
2018-05-12T08:49:41.936Z,14.77
2018-05-12T08:52:10.558Z,13.97
2018-05-12T08:54:39.228Z,14.40
2018-05-12T08:57:07.915Z,14.47
2018-05-12T09:04:12.107Z,13.87
2018-05-12T09:06:40.854Z,14.80
2018-05-12T09:09:09.704Z,14.43
2018-05-12T09:11:38.411Z,14.40
2018-05-12T09:14:07.128Z,14.73
2018-05-12T09:16:36.002Z,14.57
2018-05-12T09:19:04.500Z,13.40
2018-05-12T09:21:33.254Z,14.10
2018-05-12T09:24:02.116Z,13.90
2018-05-12T09:26:30.611Z,14.63
2018-05-12T09:28:59.378Z,14.70
2018-05-12T09:31:27.989Z,13.80
2018-05-12T09:33:56.846Z,14.93
2018-05-12T09:36:25.397Z,14.13
2018-05-12T09:38:55.629Z,14.33
2018-05-12T09:41:25.015Z,15.00
2018-05-12T09:43:54.721Z,14.57
2018-05-12T09:46:24.076Z,14.87
2018-05-12T09:48:54.207Z,13.97
2018-05-12T09:51:23.266Z,12.87
2018-05-12T09:53:52.361Z,14.57
2018-05-12T09:56:21.775Z,14.07
2018-05-12T09:58:51.368Z,13.70
2018-05-12T10:01:20.551Z,19.27
2018-05-12T10:03:49.959Z,14.50
2018-05-12T10:06:20.281Z,14.80
2018-05-12T10:08:49.986Z,15.23
2018-05-12T10:11:19.456Z,15.80
2018-05-12T10:13:48.560Z,15.63
2018-05-12T10:16:18.270Z,16.77
2018-05-12T10:18:48.504Z,17.50
2018-05-12T10:21:17.832Z,17.33
2018-05-12T10:23:47.148Z,17.60
2018-05-12T10:26:16.412Z,16.60
2018-05-12T10:28:45.451Z,16.90
2018-05-12T10:31:14.604Z,17.20
2018-05-12T10:33:43.906Z,19.00
2018-05-12T10:36:13.140Z,19.50
2018-05-12T10:38:43.048Z,19.27
2018-05-12T10:41:11.695Z,18.23
2018-05-12T10:43:40.332Z,18.93
2018-05-12T10:46:09.019Z,18.47
2018-05-12T10:48:37.860Z,19.13
2018-05-12T10:51:07.325Z,19.57
2018-05-12T10:53:36.188Z,20.17
2018-05-12T10:56:04.737Z,19.57
2018-05-12T10:58:33.325Z,21.13
2018-05-12T11:01:02.090Z,21.50
2018-05-12T11:03:30.927Z,23.63
2018-05-12T11:05:59.761Z,22.70
2018-05-12T11:08:28.396Z,23.50
2018-05-12T11:10:57.227Z,22.03
2018-05-12T11:13:26.463Z,22.70
2018-05-12T11:15:56.143Z,22.80
2018-05-12T11:18:25.690Z,22.80
2018-05-12T11:20:54.242Z,23.23
2018-05-12T11:23:22.887Z,22.57
2018-05-12T11:25:52.358Z,23.43
2018-05-12T11:28:21.216Z,22.87
2018-05-12T11:30:49.805Z,24.60
2018-05-12T11:33:18.689Z,21.77
2018-05-12T11:35:47.189Z,22.03
2018-05-12T11:38:15.955Z,21.07
2018-05-12T11:40:44.650Z,22.83
2018-05-12T11:43:13.227Z,21.43
2018-05-12T11:45:42.380Z,19.37
2018-05-12T11:48:11.792Z,19.33
2018-05-12T11:50:40.906Z,16.57
2018-05-12T11:53:09.735Z,12.67
2018-05-12T11:55:38.567Z,11.83
2018-05-12T11:58:07.401Z,12.37
2018-05-12T12:00:36.151Z,12.27
2018-05-12T12:03:04.869Z,13.13
2018-05-12T12:05:33.691Z,14.27
2018-05-12T12:08:02.546Z,13.00
2018-05-12T12:10:31.365Z,11.43
2018-05-12T12:13:00.077Z,10.97
2018-05-12T12:15:28.799Z,11.73
2018-05-12T12:17:57.665Z,12.07
2018-05-12T12:20:26.953Z,12.83
2018-05-12T12:22:55.642Z,11.90
2018-05-12T12:25:24.282Z,9.80
2018-05-12T12:27:53.748Z,10.30
2018-05-12T12:30:22.538Z,11.80
2018-05-12T12:32:53.215Z,10.40
2018-05-12T12:35:22.049Z,10.20
2018-05-12T12:37:50.741Z,9.77
2018-05-12T12:40:19.321Z,9.07
2018-05-12T12:42:48.936Z,10.67
2018-05-12T12:45:17.774Z,9.50
2018-05-12T12:47:47.387Z,10.10
2018-05-12T12:50:16.221Z,10.47
2018-05-12T12:52:45.054Z,11.50
2018-05-12T12:55:13.893Z,10.43
2018-05-12T12:57:42.690Z,9.83
2018-05-12T13:02:46.049Z,10.33
2018-05-12T13:05:14.916Z,9.40
2018-05-12T13:07:43.527Z,9.37
2018-05-12T13:10:12.385Z,7.90
2018-05-12T13:12:41.219Z,8.53
2018-05-12T13:15:10.050Z,7.40
2018-05-12T13:17:38.865Z,7.77
2018-05-12T13:20:07.713Z,7.60
2018-05-12T13:22:36.446Z,8.50
2018-05-12T13:25:05.089Z,8.27
2018-05-12T13:27:34.012Z,8.03
2018-05-12T13:30:02.844Z,7.60
2018-05-12T13:32:31.540Z,8.80
2018-05-12T13:35:00.313Z,9.13
2018-05-12T13:37:29.015Z,8.90
2018-05-12T13:39:57.584Z,9.07
2018-05-12T13:42:26.372Z,8.60
2018-05-12T13:44:55.248Z,10.87
2018-05-12T13:47:24.081Z,10.70
2018-05-12T13:49:52.913Z,11.10
2018-05-12T13:52:21.746Z,10.47
2018-05-12T13:54:50.971Z,10.30
2018-05-12T13:57:19.801Z,9.90
2018-05-12T13:59:48.637Z,10.77
2018-05-12T14:02:17.360Z,7.53
2018-05-12T14:04:46.103Z,6.80
2018-05-12T14:07:14.635Z,6.50
2018-05-12T14:09:43.377Z,3.70
2018-05-12T14:12:12.979Z,2.57
2018-05-12T14:14:41.697Z,2.33
2018-05-12T14:17:10.465Z,1.90
2018-05-12T14:19:39.187Z,1.70
2018-05-12T14:22:07.897Z,1.93
2018-05-12T14:24:36.969Z,1.33
2018-05-12T14:27:05.708Z,1.33
2018-05-12T14:29:34.428Z,1.97
2018-05-12T14:32:03.119Z,1.70
2018-05-12T14:34:31.863Z,1.67
2018-05-12T14:37:00.727Z,1.33
2018-05-12T14:39:29.362Z,2.47
2018-05-12T14:41:57.861Z,1.80
2018-05-12T14:44:26.554Z,2.00
2018-05-12T14:46:56.021Z,1.50
2018-05-12T14:49:24.536Z,1.60
2018-05-12T14:51:53.141Z,1.60
2018-05-12T14:54:22.367Z,1.30
2018-05-12T14:56:51.188Z,1.33
2018-05-12T14:59:19.981Z,1.00
2018-05-12T15:01:48.919Z,1.40
2018-05-12T15:04:17.685Z,1.10
2018-05-12T15:06:46.518Z,0.97
2018-05-12T15:09:15.353Z,1.50
2018-05-12T15:11:44.183Z,1.40
2018-05-12T15:14:12.818Z,1.30
2018-05-12T15:16:41.513Z,1.30
2018-05-12T15:19:10.143Z,1.40
2018-05-12T15:21:38.818Z,1.30
2018-05-12T15:24:07.676Z,1.40
2018-05-12T15:26:37.145Z,1.30
2018-05-12T15:29:06.017Z,1.30
2018-05-12T15:31:34.756Z,1.50
2018-05-12T15:34:03.675Z,1.10
2018-05-12T15:36:32.505Z,1.20
2018-05-12T15:39:01.201Z,1.00
2018-05-12T15:41:29.977Z,1.20
2018-05-12T15:43:58.871Z,1.17
2018-05-12T15:46:27.642Z,1.10
2018-05-12T15:48:56.470Z,1.43
2018-05-12T15:51:25.289Z,1.53
2018-05-12T15:53:54.136Z,1.50
2018-05-12T15:56:23.753Z,1.40
2018-05-12T15:58:52.502Z,1.27
2018-05-12T16:01:21.086Z,1.30
2018-05-12T16:03:49.789Z,1.03
2018-05-12T16:06:19.248Z,1.40
2018-05-12T16:08:47.914Z,1.50
2018-05-12T16:11:16.567Z,1.67
2018-05-12T16:13:45.270Z,1.50
2018-05-12T16:16:13.940Z,1.50
2018-05-12T16:18:43.334Z,1.40
2018-05-12T16:21:11.973Z,1.40
2018-05-12T16:23:40.588Z,1.60
2018-05-12T16:26:09.507Z,1.40
2018-05-12T16:28:38.384Z,1.83
2018-05-12T16:31:07.211Z,1.80
2018-05-12T16:33:36.047Z,1.67
2018-05-12T16:36:05.793Z,1.50
2018-05-12T16:38:34.592Z,1.53
2018-05-12T16:41:03.991Z,1.77
2018-05-12T16:43:33.745Z,1.80
2018-05-12T16:46:03.288Z,2.40
2018-05-12T16:48:32.589Z,1.73
2018-05-12T16:51:03.268Z,2.00
2018-05-12T16:53:32.244Z,2.00
2018-05-12T16:56:02.796Z,2.67
2018-05-12T16:58:32.358Z,2.33
2018-05-12T17:01:04.034Z,1.70
2018-05-12T17:03:33.695Z,1.70
2018-05-12T17:06:02.330Z,1.93
2018-05-12T17:08:31.688Z,1.93
2018-05-12T17:11:00.399Z,1.70
2018-05-12T17:13:29.090Z,1.60
2018-05-12T17:15:57.659Z,1.60
2018-05-12T17:18:26.426Z,1.73
2018-05-12T17:20:55.061Z,1.40
2018-05-12T17:23:24.802Z,1.90
2018-05-12T17:25:53.448Z,2.20
2018-05-12T17:28:22.910Z,1.83
2018-05-12T17:30:51.678Z,3.50
2018-05-12T17:33:22.114Z,2.60
2018-05-12T17:35:51.004Z,2.33
2018-05-12T17:38:19.830Z,2.40
2018-05-12T17:40:48.335Z,1.93
2018-05-12T17:43:16.971Z,1.97
2018-05-12T17:45:45.605Z,1.80
2018-05-12T17:48:14.391Z,3.40
2018-05-12T17:50:44.438Z,1.60
2018-05-12T17:53:13.138Z,1.97
2018-05-12T17:55:41.951Z,1.80
2018-05-12T17:58:10.614Z,2.00
2018-05-12T18:00:40.513Z,1.67
2018-05-12T18:03:09.202Z,2.03
2018-05-12T18:05:38.866Z,1.90
2018-05-12T18:08:07.563Z,2.50
2018-05-12T18:10:36.425Z,3.03
2018-05-12T18:13:05.258Z,2.80
2018-05-12T18:15:34.095Z,2.77
2018-05-12T18:18:03.453Z,3.23
2018-05-12T18:20:32.148Z,2.60
2018-05-12T18:23:02.142Z,2.30
2018-05-12T18:25:30.991Z,1.70
2018-05-12T18:28:00.370Z,2.80
2018-05-12T18:30:30.700Z,1.60
2018-05-12T18:33:00.194Z,1.90
2018-05-12T18:35:28.748Z,2.13
2018-05-12T18:37:57.375Z,2.37
2018-05-12T18:40:26.080Z,2.70
2018-05-12T18:42:55.525Z,4.17
2018-05-12T18:45:24.607Z,3.10
2018-05-12T18:47:55.251Z,2.70
2018-05-12T18:50:23.835Z,2.93
2018-05-12T18:52:52.472Z,3.17
2018-05-12T18:55:21.166Z,3.83
2018-05-12T18:57:49.902Z,5.00
2018-05-12T19:00:18.706Z,5.10
2018-05-12T19:02:47.603Z,3.80
2018-05-12T19:05:16.265Z,4.13
2018-05-12T19:07:44.846Z,4.10
2018-05-12T19:10:13.710Z,5.17
2018-05-12T19:12:43.107Z,4.10
2018-05-12T19:15:11.896Z,4.33
2018-05-12T19:17:41.457Z,3.33
2018-05-12T19:20:10.216Z,3.50
2018-05-12T19:22:38.934Z,4.17
2018-05-12T19:25:07.880Z,4.10
2018-05-12T19:27:36.521Z,3.43
2018-05-12T19:30:05.207Z,4.07
2018-05-12T19:32:33.988Z,4.97
2018-05-12T19:35:03.211Z,4.00
2018-05-12T19:37:31.847Z,4.30
2018-05-12T19:40:01.332Z,4.40
2018-05-12T19:42:30.159Z,4.27
2018-05-12T19:44:58.796Z,4.73
2018-05-12T19:47:27.494Z,5.13
2018-05-12T19:49:57.447Z,4.53
2018-05-12T19:52:26.214Z,5.10
2018-05-12T19:54:54.920Z,5.17
2018-05-12T19:57:23.639Z,6.60
2018-05-12T19:59:52.197Z,6.27
2018-05-12T20:02:20.823Z,5.57
2018-05-12T20:04:49.592Z,5.90
2018-05-12T20:07:19.208Z,7.07
2018-05-12T20:09:47.899Z,6.43
2018-05-12T20:12:23.466Z,5.33
2018-05-12T20:14:52.056Z,5.83
2018-05-12T20:17:20.847Z,4.73
2018-05-12T20:19:49.532Z,5.77
2018-05-12T20:22:18.260Z,6.00
2018-05-12T20:24:46.759Z,7.10
2018-05-12T20:27:15.494Z,5.37
2018-05-12T20:29:45.012Z,5.60
2018-05-12T20:32:13.489Z,6.17
2018-05-12T20:34:42.231Z,8.67
2018-05-12T20:37:10.984Z,5.57
2018-05-12T20:39:39.661Z,8.93
2018-05-12T20:42:09.123Z,4.90
2018-05-12T20:44:38.101Z,4.63
2018-05-12T20:47:07.610Z,5.30
2018-05-12T20:49:36.847Z,5.80
2018-05-12T20:52:05.659Z,6.37
2018-05-12T20:54:34.745Z,5.70
2018-05-12T20:57:03.478Z,5.60
2018-05-12T20:59:32.070Z,7.20
2018-05-12T21:02:00.709Z,9.17
2018-05-12T21:04:29.436Z,7.43
2018-05-12T21:06:58.243Z,6.50
2018-05-12T21:09:27.093Z,6.30
2018-05-12T21:11:56.428Z,6.40
2018-05-12T21:14:25.124Z,5.23
2018-05-12T21:16:53.897Z,5.20
2018-05-12T21:19:23.712Z,5.40
2018-05-12T21:21:52.402Z,5.83
2018-05-12T21:24:21.266Z,5.20
2018-05-12T21:26:50.805Z,5.63
2018-05-12T21:29:20.397Z,5.67
2018-05-12T21:31:49.335Z,4.40
2018-05-12T21:34:18.029Z,6.17
2018-05-12T21:36:46.803Z,5.77
2018-05-12T21:39:15.496Z,6.63
2018-05-12T21:41:44.233Z,6.57
2018-05-12T21:44:13.029Z,4.93
2018-05-12T21:46:42.493Z,6.13
2018-05-12T21:49:11.359Z,4.17
2018-05-12T21:51:40.190Z,5.17
2018-05-12T21:54:09.614Z,4.40
2018-05-12T21:56:38.236Z,4.63
2018-05-12T21:59:06.884Z,5.13
2018-05-12T22:01:35.620Z,5.23
2018-05-12T22:04:04.549Z,6.10
2018-05-12T22:06:33.385Z,5.40
2018-05-12T22:09:01.900Z,5.37
2018-05-12T22:11:30.613Z,5.53
2018-05-12T22:13:59.345Z,5.00
2018-05-12T22:16:28.227Z,5.37
2018-05-12T22:18:56.915Z,6.83
2018-05-12T22:21:25.594Z,7.27
2018-05-12T22:23:54.324Z,6.40
2018-05-12T22:26:23.257Z,5.17
2018-05-12T22:28:52.067Z,5.60
2018-05-12T22:31:21.168Z,6.43
2018-05-12T22:33:49.867Z,6.37
2018-05-12T22:36:19.286Z,5.60
2018-05-12T22:38:48.794Z,6.93
2018-05-12T22:41:17.623Z,6.03
2018-05-12T22:43:46.456Z,6.70
2018-05-12T22:46:15.283Z,4.80
2018-05-12T22:48:46.483Z,7.67
2018-05-12T22:51:15.115Z,6.93
2018-05-12T22:53:43.953Z,5.30
2018-05-12T22:56:12.585Z,5.77
2018-05-12T22:58:41.340Z,5.97
2018-05-12T23:01:10.805Z,6.70
2018-05-12T23:03:39.669Z,7.77
2018-05-12T23:06:08.506Z,6.53
2018-05-12T23:08:37.756Z,5.97
2018-05-12T23:11:06.529Z,5.67
2018-05-12T23:13:35.196Z,5.17
2018-05-12T23:16:03.983Z,6.47
2018-05-12T23:18:32.658Z,7.00
2018-05-12T23:21:01.299Z,7.57
2018-05-12T23:23:30.144Z,5.80
2018-05-12T23:25:58.964Z,5.50
2018-05-12T23:28:28.119Z,5.83
2018-05-12T23:30:57.589Z,6.47
2018-05-12T23:33:26.446Z,5.23
2018-05-12T23:35:55.201Z,5.23
2018-05-12T23:38:24.662Z,6.40
2018-05-12T23:40:53.531Z,5.43
2018-05-12T23:43:22.365Z,4.70
2018-05-12T23:45:51.206Z,5.07
2018-05-12T23:48:20.008Z,3.77
2018-05-12T23:50:48.861Z,4.30
2018-05-12T23:53:17.341Z,4.13
2018-05-12T23:55:46.132Z,3.80
2018-05-12T23:58:14.945Z,3.40
